sensor_id;sensor_type;location;lat;lon;timestamp;P1;durP1;ratioP1;P2;durP2;ratioP2
29162;SDS011;20331;53.144;8.208;2022-07-21T01:22:15;14.93;;;4.37;;
29162;SDS011;20331;53.144;8.208;2022-07-21T01:32:37;7.40;;;3.45;;
29162;SDS011;20331;53.144;8.208;2022-07-21T01:53:25;8.13;;;3.40;;
29162;SDS011;20331;53.144;8.208;2022-07-21T02:03:47;4.43;;;2.85;;
29162;SDS011;20331;53.144;8.208;2022-07-21T02:14:10;8.40;;;3.13;;
29162;SDS011;20331;53.144;8.208;2022-07-21T02:24:31;8.60;;;2.92;;
29162;SDS011;20331;53.144;8.208;2022-07-21T02:34:53;5.45;;;3.22;;
29162;SDS011;20331;53.144;8.208;2022-07-21T02:45:14;7.70;;;3.70;;
29162;SDS011;20331;53.144;8.208;2022-07-21T02:55:40;10.43;;;4.20;;
29162;SDS011;20331;53.144;8.208;2022-07-21T03:06:02;9.07;;;5.07;;
29162;SDS011;20331;53.144;8.208;2022-07-21T03:16:25;7.25;;;5.03;;
29162;SDS011;20331;53.144;8.208;2022-07-21T03:26:46;13.68;;;5.32;;
29162;SDS011;20331;53.144;8.208;2022-07-21T03:37:08;11.10;;;5.43;;
29162;SDS011;20331;53.144;8.208;2022-07-21T03:47:30;7.47;;;5.45;;
29162;SDS011;20331;53.144;8.208;2022-07-21T04:08:23;11.05;;;6.88;;
29162;SDS011;20331;53.144;8.208;2022-07-21T04:18:44;11.93;;;7.22;;
29162;SDS011;20331;53.144;8.208;2022-07-21T04:29:06;13.85;;;8.13;;
29162;SDS011;20331;53.144;8.208;2022-07-21T04:39:28;13.57;;;7.20;;
29162;SDS011;20331;53.144;8.208;2022-07-21T04:49:50;14.77;;;8.90;;
29162;SDS011;20331;53.144;8.208;2022-07-21T05:00:12;11.70;;;8.80;;
29162;SDS011;20331;53.144;8.208;2022-07-21T05:10:36;18.83;;;10.25;;
29162;SDS011;20331;53.144;8.208;2022-07-21T05:20:58;17.92;;;10.63;;
29162;SDS011;20331;53.144;8.208;2022-07-21T05:31:20;19.10;;;10.82;;
29162;SDS011;20331;53.144;8.208;2022-07-21T05:41:41;16.88;;;10.70;;
29162;SDS011;20331;53.144;8.208;2022-07-21T05:52:03;15.18;;;9.85;;
29162;SDS011;20331;53.144;8.208;2022-07-21T06:02:25;17.13;;;12.20;;
29162;SDS011;20331;53.144;8.208;2022-07-21T06:12:50;18.30;;;12.30;;
29162;SDS011;20331;53.144;8.208;2022-07-21T06:23:12;21.00;;;12.65;;
29162;SDS011;20331;53.144;8.208;2022-07-21T06:33:33;19.67;;;12.73;;
29162;SDS011;20331;53.144;8.208;2022-07-21T06:43:55;21.60;;;12.52;;
29162;SDS011;20331;53.144;8.208;2022-07-21T06:54:17;21.55;;;12.52;;
29162;SDS011;20331;53.144;8.208;2022-07-21T07:04:39;13.88;;;12.07;;
29162;SDS011;20331;53.144;8.208;2022-07-21T07:15:00;18.98;;;12.20;;
29162;SDS011;20331;53.144;8.208;2022-07-21T07:25:22;17.25;;;12.40;;
29162;SDS011;20331;53.144;8.208;2022-07-21T07:35:51;17.30;;;12.18;;
29162;SDS011;20331;53.144;8.208;2022-07-21T07:46:13;17.38;;;13.15;;
29162;SDS011;20331;53.144;8.208;2022-07-21T07:56:36;21.42;;;12.43;;
29162;SDS011;20331;53.144;8.208;2022-07-21T08:06:57;14.13;;;10.18;;
29162;SDS011;20331;53.144;8.208;2022-07-21T08:17:26;11.65;;;9.38;;
29162;SDS011;20331;53.144;8.208;2022-07-21T08:27:48;11.48;;;8.93;;
29162;SDS011;20331;53.144;8.208;2022-07-21T08:38:10;9.90;;;7.90;;
29162;SDS011;20331;53.144;8.208;2022-07-21T08:48:35;9.70;;;7.75;;
29162;SDS011;20331;53.144;8.208;2022-07-21T08:58:58;8.18;;;7.35;;
29162;SDS011;20331;53.144;8.208;2022-07-21T09:09:20;8.43;;;7.53;;
29162;SDS011;20331;53.144;8.208;2022-07-21T09:19:43;10.95;;;7.72;;
29162;SDS011;20331;53.144;8.208;2022-07-21T09:30:07;10.27;;;7.90;;
29162;SDS011;20331;53.144;8.208;2022-07-21T09:40:31;10.50;;;8.80;;
29162;SDS011;20331;53.144;8.208;2022-07-21T09:50:53;10.98;;;8.63;;
29162;SDS011;20331;53.144;8.208;2022-07-21T10:01:15;10.52;;;8.93;;
29162;SDS011;20331;53.144;8.208;2022-07-21T10:11:38;8.48;;;7.65;;
29162;SDS011;20331;53.144;8.208;2022-07-21T10:22:18;9.57;;;8.00;;
29162;SDS011;20331;53.144;8.208;2022-07-21T10:32:50;11.10;;;8.25;;
29162;SDS011;20331;53.144;8.208;2022-07-21T10:53:35;9.23;;;6.13;;
29162;SDS011;20331;53.144;8.208;2022-07-21T11:04:07;7.38;;;4.75;;
29162;SDS011;20331;53.144;8.208;2022-07-21T11:14:42;5.18;;;4.55;;
29162;SDS011;20331;53.144;8.208;2022-07-21T11:25:09;6.85;;;5.53;;
29162;SDS011;20331;53.144;8.208;2022-07-21T11:35:31;7.40;;;5.82;;
29162;SDS011;20331;53.144;8.208;2022-07-21T11:45:58;9.95;;;6.72;;
29162;SDS011;20331;53.144;8.208;2022-07-21T11:56:20;7.72;;;6.22;;
29162;SDS011;20331;53.144;8.208;2022-07-21T12:06:42;8.15;;;5.90;;
29162;SDS011;20331;53.144;8.208;2022-07-21T12:17:03;8.20;;;6.68;;
29162;SDS011;20331;53.144;8.208;2022-07-21T12:27:25;10.38;;;6.57;;
29162;SDS011;20331;53.144;8.208;2022-07-21T12:37:51;8.27;;;7.30;;
29162;SDS011;20331;53.144;8.208;2022-07-21T12:48:20;9.85;;;7.95;;
29162;SDS011;20331;53.144;8.208;2022-07-21T12:58:47;9.52;;;7.10;;
29162;SDS011;20331;53.144;8.208;2022-07-21T13:09:09;8.88;;;7.25;;
29162;SDS011;20331;53.144;8.208;2022-07-21T13:19:38;9.40;;;6.13;;
29162;SDS011;20331;53.144;8.208;2022-07-21T13:30:01;9.38;;;7.22;;
29162;SDS011;20331;53.144;8.208;2022-07-21T13:40:28;11.30;;;8.60;;
29162;SDS011;20331;53.144;8.208;2022-07-21T13:51:10;16.35;;;10.25;;
29162;SDS011;20331;53.144;8.208;2022-07-21T14:01:33;14.13;;;10.27;;
29162;SDS011;20331;53.144;8.208;2022-07-21T14:11:55;13.13;;;9.15;;
29162;SDS011;20331;53.144;8.208;2022-07-21T14:22:18;18.45;;;12.82;;
29162;SDS011;20331;53.144;8.208;2022-07-21T14:32:46;19.35;;;14.80;;
29162;SDS011;20331;53.144;8.208;2022-07-21T14:43:09;29.77;;;16.67;;
29162;SDS011;20331;53.144;8.208;2022-07-21T14:53:30;21.60;;;16.23;;
29162;SDS011;20331;53.144;8.208;2022-07-21T15:03:52;24.45;;;18.10;;
29162;SDS011;20331;53.144;8.208;2022-07-21T15:14:15;20.20;;;16.38;;
29162;SDS011;20331;53.144;8.208;2022-07-21T15:24:36;21.60;;;15.20;;
29162;SDS011;20331;53.144;8.208;2022-07-21T15:34:58;17.33;;;14.27;;
29162;SDS011;20331;53.144;8.208;2022-07-21T15:45:19;21.35;;;14.65;;
29162;SDS011;20331;53.144;8.208;2022-07-21T15:55:41;17.70;;;13.30;;
29162;SDS011;20331;53.144;8.208;2022-07-21T16:06:09;17.30;;;12.68;;
29162;SDS011;20331;53.144;8.208;2022-07-21T16:16:30;24.90;;;15.57;;
29162;SDS011;20331;53.144;8.208;2022-07-21T16:26:53;22.92;;;15.50;;
29162;SDS011;20331;53.144;8.208;2022-07-21T16:37:14;24.15;;;14.63;;
29162;SDS011;20331;53.144;8.208;2022-07-21T16:47:36;32.72;;;15.18;;
29162;SDS011;20331;53.144;8.208;2022-07-21T16:57:58;22.65;;;15.52;;
29162;SDS011;20331;53.144;8.208;2022-07-21T17:08:19;19.70;;;13.38;;
29162;SDS011;20331;53.144;8.208;2022-07-21T17:18:41;18.95;;;14.05;;
29162;SDS011;20331;53.144;8.208;2022-07-21T17:29:03;18.88;;;13.30;;
29162;SDS011;20331;53.144;8.208;2022-07-21T17:39:25;24.65;;;14.90;;
29162;SDS011;20331;53.144;8.208;2022-07-21T17:49:46;20.73;;;15.70;;
29162;SDS011;20331;53.144;8.208;2022-07-21T18:00:08;22.25;;;15.02;;
29162;SDS011;20331;53.144;8.208;2022-07-21T18:10:30;25.30;;;15.13;;
29162;SDS011;20331;53.144;8.208;2022-07-21T18:20:52;19.58;;;15.30;;
29162;SDS011;20331;53.144;8.208;2022-07-21T18:31:13;23.98;;;16.40;;
29162;SDS011;20331;53.144;8.208;2022-07-21T18:41:35;24.42;;;15.63;;
29162;SDS011;20331;53.144;8.208;2022-07-21T18:51:57;20.75;;;14.52;;
29162;SDS011;20331;53.144;8.208;2022-07-21T19:02:19;18.65;;;14.05;;
29162;SDS011;20331;53.144;8.208;2022-07-21T19:12:41;17.80;;;12.68;;
29162;SDS011;20331;53.144;8.208;2022-07-21T19:23:03;19.02;;;13.43;;
29162;SDS011;20331;53.144;8.208;2022-07-21T19:33:25;17.67;;;12.85;;
29162;SDS011;20331;53.144;8.208;2022-07-21T19:43:47;17.13;;;12.90;;
29162;SDS011;20331;53.144;8.208;2022-07-21T19:54:08;17.42;;;14.38;;
29162;SDS011;20331;53.144;8.208;2022-07-21T20:04:30;18.23;;;14.48;;
29162;SDS011;20331;53.144;8.208;2022-07-21T20:14:52;25.17;;;15.57;;
29162;SDS011;20331;53.144;8.208;2022-07-21T20:25:14;20.77;;;14.07;;
29162;SDS011;20331;53.144;8.208;2022-07-21T20:35:36;16.60;;;11.93;;
29162;SDS011;20331;53.144;8.208;2022-07-21T20:45:57;19.42;;;12.57;;
29162;SDS011;20331;53.144;8.208;2022-07-21T20:56:19;17.75;;;11.23;;
29162;SDS011;20331;53.144;8.208;2022-07-21T21:07:01;16.95;;;10.20;;
29162;SDS011;20331;53.144;8.208;2022-07-21T21:17:22;9.18;;;3.97;;
29162;SDS011;20331;53.144;8.208;2022-07-21T21:27:44;4.88;;;3.10;;
29162;SDS011;20331;53.144;8.208;2022-07-21T21:38:05;4.30;;;2.10;;
29162;SDS011;20331;53.144;8.208;2022-07-21T21:48:29;5.65;;;2.20;;
29162;SDS011;20331;53.144;8.208;2022-07-21T21:58:50;5.25;;;1.70;;
29162;SDS011;20331;53.144;8.208;2022-07-21T22:09:12;3.00;;;1.27;;
29162;SDS011;20331;53.144;8.208;2022-07-21T22:19:34;2.47;;;1.00;;
29162;SDS011;20331;53.144;8.208;2022-07-21T22:29:55;5.18;;;1.25;;
29162;SDS011;20331;53.144;8.208;2022-07-21T22:40:17;2.17;;;1.08;;
29162;SDS011;20331;53.144;8.208;2022-07-21T22:50:39;7.55;;;1.40;;
29162;SDS011;20331;53.144;8.208;2022-07-21T23:01:00;2.10;;;1.23;;
29162;SDS011;20331;53.144;8.208;2022-07-21T23:11:22;2.83;;;1.40;;
29162;SDS011;20331;53.144;8.208;2022-07-21T23:21:43;2.25;;;1.10;;
29162;SDS011;20331;53.144;8.208;2022-07-21T23:32:05;3.50;;;1.30;;
29162;SDS011;20331;53.144;8.208;2022-07-21T23:42:28;5.78;;;1.30;;
29162;SDS011;20331;53.144;8.208;2022-07-21T23:52:49;7.82;;;1.60;;
